createdAt,value
2023-04-04T00:03:22.305Z,92223.81
2023-04-04T00:08:26.080Z,92214.88
2023-04-04T00:13:29.401Z,92207.53
2023-04-04T00:18:33.670Z,92216.13
2023-04-04T00:23:37.417Z,92216.13
2023-04-04T00:28:40.862Z,92221.16
2023-04-04T00:33:44.664Z,92217.59
2023-04-04T00:38:48.285Z,92221.44
2023-04-04T00:43:51.952Z,92224.59
2023-04-04T00:48:56.293Z,92237.31
2023-04-04T00:54:00.191Z,92230.03
2023-04-04T00:59:03.594Z,92244.00
2023-04-04T01:04:07.276Z,92244.78
2023-04-04T01:09:11.337Z,92248.34
2023-04-04T01:14:16.481Z,92248.38
2023-04-04T01:19:33.901Z,92249.22
2023-04-04T01:24:43.726Z,92243.81
2023-04-04T01:29:47.185Z,92254.66
2023-04-04T01:35:37.474Z,92241.06
2023-04-04T01:40:42.280Z,92258.09
2023-04-04T01:45:46.511Z,92242.16
2023-04-04T01:50:51.482Z,92248.34
2023-04-04T01:55:55.186Z,92259.50
2023-04-04T02:00:58.827Z,92261.44
2023-04-04T02:06:03.188Z,92260.66
2023-04-04T02:11:07.309Z,92261.44
2023-04-04T02:16:12.090Z,92270.34
2023-04-04T02:21:16.914Z,92278.47
2023-04-04T02:26:20.121Z,92281.53
2023-04-04T02:31:23.788Z,92279.16
2023-04-04T02:36:29.212Z,92278.72
2023-04-04T02:41:34.613Z,92291.41
2023-04-04T02:46:38.916Z,92294.81
2023-04-04T02:51:45.876Z,92297.47
2023-04-04T02:56:49.461Z,92303.59
2023-04-04T03:01:53.124Z,92296.50
2023-04-04T03:06:57.003Z,92316.19
2023-04-04T03:12:01.633Z,92318.84
2023-04-04T03:17:06.594Z,92326.25
2023-04-04T03:22:09.941Z,92330.59
2023-04-04T03:27:13.476Z,92336.47
2023-04-04T03:32:18.536Z,92334.94
2023-04-04T03:37:23.121Z,92337.66
2023-04-04T03:42:27.203Z,92330.28
2023-04-04T03:47:30.665Z,92341.44
2023-04-04T03:52:40.101Z,92338.00
2023-04-04T03:57:43.601Z,92348.81
2023-04-04T04:02:49.977Z,92343.31
2023-04-04T04:07:54.188Z,92347.16
2023-04-04T04:12:57.958Z,92353.44
2023-04-04T04:18:01.604Z,92356.44
2023-04-04T04:23:05.667Z,92364.44
2023-04-04T04:28:09.119Z,92375.59
2023-04-04T04:33:13.456Z,92378.31
2023-04-04T04:38:30.158Z,92384.47
2023-04-04T04:43:34.220Z,92394.94
2023-04-04T04:48:38.679Z,92388.72
2023-04-04T04:53:43.596Z,92388.81
2023-04-04T04:58:49.118Z,92399.34
2023-04-04T05:03:59.390Z,92387.47
2023-04-04T05:09:15.049Z,92397.28
2023-04-04T05:14:19.031Z,92417.59
2023-04-04T05:19:32.220Z,92429.81
2023-04-04T05:24:36.570Z,92428.16
2023-04-04T05:29:41.352Z,92428.63
2023-04-04T05:34:44.777Z,92442.75
2023-04-04T05:39:53.058Z,92454.41
2023-04-04T05:44:56.701Z,92457.91
2023-04-04T05:50:04.285Z,92472.72
2023-04-04T05:55:11.448Z,92479.31
2023-04-04T06:00:16.231Z,92473.50
2023-04-04T06:05:23.818Z,92487.09
2023-04-04T06:10:27.713Z,92478.47
2023-04-04T06:15:33.714Z,92486.44
2023-04-04T06:20:37.969Z,92481.78
2023-04-04T06:25:42.051Z,92491.00
2023-04-04T06:30:45.719Z,92492.31
2023-04-04T06:35:52.063Z,92491.78
2023-04-04T06:40:57.581Z,92499.22
2023-04-04T06:46:01.502Z,92504.75
2023-04-04T06:51:08.423Z,92508.22
2023-04-04T06:56:14.692Z,92503.75
2023-04-04T07:01:18.843Z,92514.53
2023-04-04T07:06:25.989Z,92520.66
2023-04-04T07:11:30.312Z,92521.44
2023-04-04T07:16:34.268Z,92521.47
2023-04-04T07:21:38.787Z,92521.59
2023-04-04T07:26:42.444Z,92536.31
2023-04-04T07:31:45.582Z,92532.41
2023-04-04T07:36:49.863Z,92530.34
2023-04-04T07:41:53.985Z,92554.28
2023-04-04T07:47:08.801Z,92550.81
2023-04-04T07:52:13.982Z,92561.84
2023-04-04T07:57:17.775Z,92573.03
2023-04-04T08:02:21.731Z,92575.78
2023-04-04T08:07:25.598Z,92579.97
2023-04-04T08:12:29.383Z,92593.84
2023-04-04T08:17:33.564Z,92605.50
2023-04-04T08:22:37.602Z,92616.09
2023-04-04T08:27:49.520Z,92626.00
2023-04-04T08:32:52.819Z,92631.88
2023-04-04T08:37:57.849Z,92631.00
2023-04-04T08:43:02.448Z,92635.78
2023-04-04T08:48:07.903Z,92639.88
2023-04-04T08:53:12.207Z,92648.88
2023-04-04T08:58:17.493Z,92651.03
2023-04-04T09:03:31.306Z,92658.34
2023-04-04T09:08:35.358Z,92658.00
2023-04-04T09:13:41.492Z,92662.25
2023-04-04T09:18:44.893Z,92668.09
2023-04-04T09:23:48.752Z,92673.91
2023-04-04T09:28:54.181Z,92683.53
2023-04-04T09:33:59.074Z,92675.13
2023-04-04T09:39:04.716Z,92683.22
2023-04-04T09:44:11.312Z,92696.34
2023-04-04T09:49:22.763Z,92700.31
2023-04-04T09:54:30.248Z,92710.75
2023-04-04T09:59:35.106Z,92708.53
2023-04-04T10:04:38.962Z,92715.38
2023-04-04T10:09:42.727Z,92710.78
2023-04-04T10:14:47.949Z,92728.84
2023-04-04T10:19:53.209Z,92730.69
2023-04-04T10:24:57.004Z,92744.66
2023-04-04T10:30:01.736Z,92737.84
2023-04-04T10:35:11.314Z,92741.91
2023-04-04T10:40:17.641Z,92754.44
2023-04-04T10:45:22.138Z,92757.59
2023-04-04T10:50:29.095Z,92770.66
2023-04-04T10:55:33.951Z,92763.75
2023-04-04T11:00:51.959Z,92757.22
2023-04-04T11:06:02.220Z,92755.38
2023-04-04T11:11:16.074Z,92767.09
2023-04-04T11:16:25.991Z,92766.72
2023-04-04T11:21:33.263Z,92756.59
2023-04-04T11:26:37.232Z,92757.50
2023-04-04T11:31:49.497Z,92763.84
2023-04-04T11:36:53.692Z,92770.41
2023-04-04T11:42:14.248Z,92768.28
2023-04-04T11:47:23.816Z,92768.91
2023-04-04T11:52:35.403Z,92762.97
2023-04-04T11:57:42.277Z,92773.78
2023-04-04T12:02:46.553Z,92777.00
2023-04-04T12:07:54.742Z,92791.66
2023-04-04T12:12:59.484Z,92804.59
2023-04-04T12:18:07.746Z,92810.44
2023-04-04T12:23:11.812Z,92815.25
2023-04-04T12:28:15.725Z,92808.00
2023-04-04T12:33:20.100Z,92802.16
2023-04-04T12:38:23.944Z,92810.19
2023-04-04T12:43:32.017Z,92805.00
2023-04-04T12:48:37.335Z,92822.19
2023-04-04T12:53:57.259Z,92815.44
2023-04-04T12:59:05.143Z,92809.25
2023-04-04T13:04:10.053Z,92811.66
2023-04-04T13:09:24.497Z,92814.13
2023-04-04T13:14:58.673Z,92819.25
2023-04-04T13:20:04.406Z,92816.09
2023-04-04T13:25:09.514Z,92819.31
2023-04-04T13:30:13.230Z,92825.44
2023-04-04T13:35:16.714Z,92827.72
2023-04-04T13:40:20.600Z,92826.66
2023-04-04T13:45:24.609Z,92838.97
2023-04-04T13:50:28.605Z,92848.28
2023-04-04T13:55:32.576Z,92850.75
2023-04-04T14:00:36.406Z,92865.19
2023-04-04T14:05:40.870Z,92865.16
2023-04-04T14:10:44.430Z,92873.84
2023-04-04T14:15:49.376Z,92882.09
2023-04-04T14:20:53.426Z,92878.28
2023-04-04T14:25:59.518Z,92896.22
2023-04-04T14:31:03.451Z,92912.59
2023-04-04T14:36:07.093Z,92910.69
2023-04-04T14:41:10.792Z,92914.97
2023-04-04T14:46:13.995Z,92929.75
2023-04-04T14:51:19.915Z,92921.19
2023-04-04T14:56:23.743Z,92923.50
2023-04-04T15:01:27.887Z,92932.13
2023-04-04T15:06:37.099Z,92921.59
2023-04-04T15:11:41.152Z,92925.06
2023-04-04T15:16:44.695Z,92934.84
2023-04-04T15:21:49.164Z,92940.69
2023-04-04T15:26:52.729Z,92939.53
2023-04-04T15:31:56.119Z,92934.44
2023-04-04T15:37:04.462Z,92939.13
2023-04-04T15:42:08.579Z,92928.22
2023-04-04T15:47:12.589Z,92928.63
2023-04-04T15:52:16.078Z,92933.13
2023-04-04T15:57:19.720Z,92933.69
2023-04-04T16:02:23.766Z,92924.59
2023-04-04T16:07:27.538Z,92939.72
2023-04-04T16:12:34.451Z,92946.78
2023-04-04T16:17:38.176Z,92956.59
2023-04-04T16:22:41.674Z,92960.91
2023-04-04T16:27:45.312Z,92964.47
2023-04-04T16:32:49.077Z,92965.22
2023-04-04T16:37:52.655Z,92966.81
2023-04-04T16:42:56.531Z,92958.59
2023-04-04T16:47:59.986Z,92954.34
2023-04-04T16:53:04.581Z,92957.47
2023-04-04T16:58:08.307Z,92953.91
2023-04-04T17:03:11.929Z,92969.41
2023-04-04T17:08:16.134Z,92966.94
2023-04-04T17:13:20.275Z,92973.03
2023-04-04T17:18:23.354Z,92971.72
2023-04-04T17:23:26.896Z,92973.06
2023-04-04T17:28:31.488Z,92981.84
2023-04-04T17:33:34.948Z,92984.78
2023-04-04T17:38:42.201Z,93004.47
2023-04-04T17:43:45.176Z,93003.75
2023-04-04T17:48:49.142Z,93014.81
2023-04-04T17:53:52.712Z,93028.25
2023-04-04T17:58:57.897Z,93037.00
2023-04-04T18:04:01.853Z,93049.47
2023-04-04T18:09:05.878Z,93045.34
2023-04-04T18:14:10.047Z,93068.00
2023-04-04T18:19:14.444Z,93066.47
2023-04-04T18:24:18.452Z,93075.19
2023-04-04T18:29:22.276Z,93089.78
2023-04-04T18:34:26.078Z,93091.03
2023-04-04T18:39:29.436Z,93100.31
2023-04-04T18:44:33.251Z,93114.69
2023-04-04T18:49:37.260Z,93120.59
2023-04-04T18:54:41.441Z,93142.53
2023-04-04T18:59:45.088Z,93136.13
2023-04-04T19:04:50.026Z,93144.94
2023-04-04T19:09:54.271Z,93153.03
2023-04-04T19:14:59.422Z,93151.00
2023-04-04T19:20:03.391Z,93169.28
2023-04-04T19:25:08.001Z,93170.06
2023-04-04T19:30:48.381Z,93174.75
2023-04-04T19:36:00.665Z,93185.47
2023-04-04T19:41:08.504Z,93200.91
2023-04-04T19:46:17.503Z,93195.75
2023-04-04T19:51:21.728Z,93196.31
2023-04-04T19:56:27.831Z,93201.66
2023-04-04T20:01:34.568Z,93201.03
2023-04-04T20:06:39.254Z,93203.53
2023-04-04T20:11:43.201Z,93204.59
2023-04-04T20:16:46.771Z,93214.44
2023-04-04T20:21:50.674Z,93219.44
2023-04-04T20:27:03.238Z,93220.78
2023-04-04T20:32:10.623Z,93221.72
2023-04-04T20:37:14.145Z,93227.75
2023-04-04T20:42:20.884Z,93239.06
2023-04-04T20:47:54.771Z,93238.19
2023-04-04T20:53:00.653Z,93240.47
2023-04-04T20:58:11.233Z,93247.28
2023-04-04T21:03:30.624Z,93256.25
2023-04-04T21:08:58.658Z,93248.44
2023-04-04T21:14:02.235Z,93257.69
2023-04-04T21:19:06.257Z,93263.81
2023-04-04T21:24:13.371Z,93264.84
2023-04-04T21:29:27.124Z,93272.63
2023-04-04T21:34:31.502Z,93265.03
2023-04-04T21:39:36.875Z,93282.06
2023-04-04T21:44:40.908Z,93288.88
2023-04-04T21:49:44.018Z,93287.63
2023-04-04T21:54:47.751Z,93294.00
2023-04-04T21:59:51.005Z,93294.59
2023-04-04T22:04:54.200Z,93294.06
2023-04-04T22:09:58.985Z,93302.09
2023-04-04T22:15:03.233Z,93279.19
2023-04-04T22:20:08.725Z,93307.31
2023-04-04T22:25:12.910Z,93306.78
2023-04-04T22:30:16.939Z,93300.47
2023-04-04T22:35:20.531Z,93297.78
2023-04-04T22:40:24.206Z,93305.94
2023-04-04T22:45:30.293Z,93313.28
2023-04-04T22:50:35.747Z,93312.34
2023-04-04T22:55:40.055Z,93325.84
2023-04-04T23:00:44.149Z,93308.81
2023-04-04T23:05:47.253Z,93310.63
2023-04-04T23:10:51.009Z,93306.31
2023-04-04T23:15:54.730Z,93294.91
2023-04-04T23:20:58.209Z,93309.53
2023-04-04T23:26:01.346Z,93305.59
2023-04-04T23:31:05.413Z,93292.94
2023-04-04T23:36:10.121Z,93297.47
2023-04-04T23:41:14.144Z,93294.94
2023-04-04T23:46:17.807Z,93291.94
2023-04-04T23:51:21.605Z,93288.31
2023-04-04T23:56:24.786Z,93301.59
